sensor_id;sensor_type;location;lat;lon;timestamp;temperature;humidity
3758;DHT22;1894;51.038;13.692;2023-04-08T00:00:16;5.50;99.90
3758;DHT22;1894;51.038;13.692;2023-04-08T00:02:43;5.60;99.90
3758;DHT22;1894;51.038;13.692;2023-04-08T00:05:10;5.70;99.90
3758;DHT22;1894;51.038;13.692;2023-04-08T00:07:37;5.60;99.90
3758;DHT22;1894;51.038;13.692;2023-04-08T00:10:05;5.50;99.90
3758;DHT22;1894;51.038;13.692;2023-04-08T00:12:33;5.60;99.90
3758;DHT22;1894;51.038;13.692;2023-04-08T00:15:00;5.40;99.90
3758;DHT22;1894;51.038;13.692;2023-04-08T00:17:27;5.50;99.90
3758;DHT22;1894;51.038;13.692;2023-04-08T00:19:54;5.40;99.90
3758;DHT22;1894;51.038;13.692;2023-04-08T00:22:22;5.50;99.90
3758;DHT22;1894;51.038;13.692;2023-04-08T00:24:49;5.60;99.90
3758;DHT22;1894;51.038;13.692;2023-04-08T00:27:16;5.40;99.90
3758;DHT22;1894;51.038;13.692;2023-04-08T00:29:43;5.50;99.90
3758;DHT22;1894;51.038;13.692;2023-04-08T00:32:11;5.40;99.90
3758;DHT22;1894;51.038;13.692;2023-04-08T00:34:38;5.60;99.90
3758;DHT22;1894;51.038;13.692;2023-04-08T00:37:05;5.60;99.90
3758;DHT22;1894;51.038;13.692;2023-04-08T00:39:33;5.40;99.90
3758;DHT22;1894;51.038;13.692;2023-04-08T00:42:00;5.50;99.90
3758;DHT22;1894;51.038;13.692;2023-04-08T00:44:28;5.40;99.90
3758;DHT22;1894;51.038;13.692;2023-04-08T00:46:55;5.50;99.90
3758;DHT22;1894;51.038;13.692;2023-04-08T00:49:22;5.40;99.90
3758;DHT22;1894;51.038;13.692;2023-04-08T00:51:49;5.50;99.90
3758;DHT22;1894;51.038;13.692;2023-04-08T00:54:17;5.50;99.90
3758;DHT22;1894;51.038;13.692;2023-04-08T00:56:44;5.60;99.90
3758;DHT22;1894;51.038;13.692;2023-04-08T00:59:13;5.50;99.90
3758;DHT22;1894;51.038;13.692;2023-04-08T01:04:32;5.50;99.90
3758;DHT22;1894;51.038;13.692;2023-04-08T01:07:14;5.50;99.90
3758;DHT22;1894;51.038;13.692;2023-04-08T01:09:46;5.60;99.90
3758;DHT22;1894;51.038;13.692;2023-04-08T01:12:21;5.60;99.90
3758;DHT22;1894;51.038;13.692;2023-04-08T01:15:05;5.60;99.90
3758;DHT22;1894;51.038;13.692;2023-04-08T01:17:35;5.40;99.90
3758;DHT22;1894;51.038;13.692;2023-04-08T01:20:04;5.40;99.90
3758;DHT22;1894;51.038;13.692;2023-04-08T01:25:25;5.50;99.90
3758;DHT22;1894;51.038;13.692;2023-04-08T01:27:55;5.60;99.90
3758;DHT22;1894;51.038;13.692;2023-04-08T01:30:25;5.60;99.90
3758;DHT22;1894;51.038;13.692;2023-04-08T01:32:57;5.60;99.90
3758;DHT22;1894;51.038;13.692;2023-04-08T01:35:26;5.60;99.90
3758;DHT22;1894;51.038;13.692;2023-04-08T01:37:54;5.70;99.90
3758;DHT22;1894;51.038;13.692;2023-04-08T01:40:22;5.70;99.90
3758;DHT22;1894;51.038;13.692;2023-04-08T01:42:54;5.70;99.90
3758;DHT22;1894;51.038;13.692;2023-04-08T01:45:23;5.70;99.90
3758;DHT22;1894;51.038;13.692;2023-04-08T01:47:51;5.60;99.90
3758;DHT22;1894;51.038;13.692;2023-04-08T01:50:19;5.60;99.90
3758;DHT22;1894;51.038;13.692;2023-04-08T01:52:48;5.60;99.90
3758;DHT22;1894;51.038;13.692;2023-04-08T01:55:19;5.60;99.90
3758;DHT22;1894;51.038;13.692;2023-04-08T01:57:51;5.50;99.90
3758;DHT22;1894;51.038;13.692;2023-04-08T02:00:23;5.40;99.90
3758;DHT22;1894;51.038;13.692;2023-04-08T02:02:52;5.50;99.90
3758;DHT22;1894;51.038;13.692;2023-04-08T02:05:21;5.50;99.90
3758;DHT22;1894;51.038;13.692;2023-04-08T02:07:48;5.60;99.90
3758;DHT22;1894;51.038;13.692;2023-04-08T02:10:16;5.60;99.90
3758;DHT22;1894;51.038;13.692;2023-04-08T02:12:43;5.60;99.90
3758;DHT22;1894;51.038;13.692;2023-04-08T02:15:12;5.60;99.90
3758;DHT22;1894;51.038;13.692;2023-04-08T02:23:10;5.70;99.90
3758;DHT22;1894;51.038;13.692;2023-04-08T02:25:43;5.70;99.90
3758;DHT22;1894;51.038;13.692;2023-04-08T02:28:13;5.70;99.90
3758;DHT22;1894;51.038;13.692;2023-04-08T02:30:42;5.70;99.90
3758;DHT22;1894;51.038;13.692;2023-04-08T02:33:13;5.70;99.90
3758;DHT22;1894;51.038;13.692;2023-04-08T02:35:41;5.80;99.90
3758;DHT22;1894;51.038;13.692;2023-04-08T02:38:09;5.80;99.90
3758;DHT22;1894;51.038;13.692;2023-04-08T02:40:36;5.80;99.90
3758;DHT22;1894;51.038;13.692;2023-04-08T02:43:04;5.80;99.90
3758;DHT22;1894;51.038;13.692;2023-04-08T02:45:34;5.80;99.90
3758;DHT22;1894;51.038;13.692;2023-04-08T02:48:05;5.70;99.90
3758;DHT22;1894;51.038;13.692;2023-04-08T02:50:32;5.60;99.90
3758;DHT22;1894;51.038;13.692;2023-04-08T02:52:59;5.70;99.90
3758;DHT22;1894;51.038;13.692;2023-04-08T02:55:29;5.70;99.90
3758;DHT22;1894;51.038;13.692;2023-04-08T02:57:56;5.80;99.90
3758;DHT22;1894;51.038;13.692;2023-04-08T03:00:23;5.90;99.90
3758;DHT22;1894;51.038;13.692;2023-04-08T03:02:51;6.00;99.90
3758;DHT22;1894;51.038;13.692;2023-04-08T03:05:18;6.00;99.90
3758;DHT22;1894;51.038;13.692;2023-04-08T03:07:45;6.10;99.90
3758;DHT22;1894;51.038;13.692;2023-04-08T03:10:12;6.10;99.90
3758;DHT22;1894;51.038;13.692;2023-04-08T03:12:39;6.00;99.90
3758;DHT22;1894;51.038;13.692;2023-04-08T03:15:07;6.00;99.90
3758;DHT22;1894;51.038;13.692;2023-04-08T03:17:34;5.90;99.90
3758;DHT22;1894;51.038;13.692;2023-04-08T03:20:02;5.90;99.90
3758;DHT22;1894;51.038;13.692;2023-04-08T03:22:33;6.00;99.90
3758;DHT22;1894;51.038;13.692;2023-04-08T03:25:00;5.90;99.90
3758;DHT22;1894;51.038;13.692;2023-04-08T03:27:27;5.90;99.90
3758;DHT22;1894;51.038;13.692;2023-04-08T03:29:55;5.90;99.90
3758;DHT22;1894;51.038;13.692;2023-04-08T03:32:23;5.90;99.90
3758;DHT22;1894;51.038;13.692;2023-04-08T03:34:51;5.90;99.90
3758;DHT22;1894;51.038;13.692;2023-04-08T03:37:19;5.90;99.90
3758;DHT22;1894;51.038;13.692;2023-04-08T03:39:46;5.80;99.90
3758;DHT22;1894;51.038;13.692;2023-04-08T03:42:13;5.90;99.90
3758;DHT22;1894;51.038;13.692;2023-04-08T03:44:40;5.90;99.90
3758;DHT22;1894;51.038;13.692;2023-04-08T03:47:08;5.90;99.90
3758;DHT22;1894;51.038;13.692;2023-04-08T03:49:35;5.90;99.90
3758;DHT22;1894;51.038;13.692;2023-04-08T03:52:02;5.90;99.90
3758;DHT22;1894;51.038;13.692;2023-04-08T03:54:29;5.90;99.90
3758;DHT22;1894;51.038;13.692;2023-04-08T03:56:56;5.90;99.90
3758;DHT22;1894;51.038;13.692;2023-04-08T03:59:24;5.90;99.90
3758;DHT22;1894;51.038;13.692;2023-04-08T04:01:51;5.90;99.90
3758;DHT22;1894;51.038;13.692;2023-04-08T04:04:19;6.00;99.90
3758;DHT22;1894;51.038;13.692;2023-04-08T04:06:47;5.90;99.90
3758;DHT22;1894;51.038;13.692;2023-04-08T04:09:14;6.00;99.90
3758;DHT22;1894;51.038;13.692;2023-04-08T04:11:42;5.90;99.90
3758;DHT22;1894;51.038;13.692;2023-04-08T04:14:09;5.90;99.90
3758;DHT22;1894;51.038;13.692;2023-04-08T04:16:37;5.90;99.90
3758;DHT22;1894;51.038;13.692;2023-04-08T04:19:04;6.00;99.90
3758;DHT22;1894;51.038;13.692;2023-04-08T04:21:31;6.00;99.90
3758;DHT22;1894;51.038;13.692;2023-04-08T04:23:59;6.10;99.90
3758;DHT22;1894;51.038;13.692;2023-04-08T04:26:26;6.00;99.90
3758;DHT22;1894;51.038;13.692;2023-04-08T04:28:53;5.90;99.90
3758;DHT22;1894;51.038;13.692;2023-04-08T04:31:22;5.90;99.90
3758;DHT22;1894;51.038;13.692;2023-04-08T04:33:52;5.90;99.90
3758;DHT22;1894;51.038;13.692;2023-04-08T04:36:19;5.90;99.90
3758;DHT22;1894;51.038;13.692;2023-04-08T04:38:47;5.90;99.90
3758;DHT22;1894;51.038;13.692;2023-04-08T04:41:16;5.90;99.90
3758;DHT22;1894;51.038;13.692;2023-04-08T04:43:44;5.90;99.90
3758;DHT22;1894;51.038;13.692;2023-04-08T04:46:11;6.00;99.90
3758;DHT22;1894;51.038;13.692;2023-04-08T04:48:38;6.10;99.90
3758;DHT22;1894;51.038;13.692;2023-04-08T04:51:06;6.10;99.90
3758;DHT22;1894;51.038;13.692;2023-04-08T04:53:33;6.10;99.90
3758;DHT22;1894;51.038;13.692;2023-04-08T04:56:01;6.20;99.90
3758;DHT22;1894;51.038;13.692;2023-04-08T04:58:28;6.10;99.90
3758;DHT22;1894;51.038;13.692;2023-04-08T05:00:56;6.10;99.90
3758;DHT22;1894;51.038;13.692;2023-04-08T05:03:23;6.20;99.90
3758;DHT22;1894;51.038;13.692;2023-04-08T05:05:52;6.10;99.90
3758;DHT22;1894;51.038;13.692;2023-04-08T05:08:20;6.20;99.90
3758;DHT22;1894;51.038;13.692;2023-04-08T05:10:47;6.30;99.90
3758;DHT22;1894;51.038;13.692;2023-04-08T05:13:18;6.30;99.90
3758;DHT22;1894;51.038;13.692;2023-04-08T05:15:45;6.30;99.90
3758;DHT22;1894;51.038;13.692;2023-04-08T05:18:12;6.40;99.90
3758;DHT22;1894;51.038;13.692;2023-04-08T05:20:39;6.30;99.90
3758;DHT22;1894;51.038;13.692;2023-04-08T05:23:07;6.30;99.90
3758;DHT22;1894;51.038;13.692;2023-04-08T05:25:34;6.30;99.90
3758;DHT22;1894;51.038;13.692;2023-04-08T05:28:02;6.30;99.90
3758;DHT22;1894;51.038;13.692;2023-04-08T05:30:29;6.20;99.90
3758;DHT22;1894;51.038;13.692;2023-04-08T05:32:57;6.20;99.90
3758;DHT22;1894;51.038;13.692;2023-04-08T05:35:27;6.30;99.90
3758;DHT22;1894;51.038;13.692;2023-04-08T05:37:55;6.30;99.90
3758;DHT22;1894;51.038;13.692;2023-04-08T05:40:22;6.40;99.90
3758;DHT22;1894;51.038;13.692;2023-04-08T05:42:49;6.50;99.90
3758;DHT22;1894;51.038;13.692;2023-04-08T05:45:17;6.50;99.90
3758;DHT22;1894;51.038;13.692;2023-04-08T05:47:45;6.40;99.90
3758;DHT22;1894;51.038;13.692;2023-04-08T05:50:13;6.40;99.90
3758;DHT22;1894;51.038;13.692;2023-04-08T05:52:44;6.50;99.90
3758;DHT22;1894;51.038;13.692;2023-04-08T05:55:18;6.50;99.90
3758;DHT22;1894;51.038;13.692;2023-04-08T05:57:49;6.60;99.90
3758;DHT22;1894;51.038;13.692;2023-04-08T06:00:20;6.60;99.90
3758;DHT22;1894;51.038;13.692;2023-04-08T06:02:48;6.50;99.90
3758;DHT22;1894;51.038;13.692;2023-04-08T06:05:17;6.70;99.90
3758;DHT22;1894;51.038;13.692;2023-04-08T06:07:45;6.60;99.90
3758;DHT22;1894;51.038;13.692;2023-04-08T06:10:13;6.70;99.90
3758;DHT22;1894;51.038;13.692;2023-04-08T06:12:41;6.70;99.90
3758;DHT22;1894;51.038;13.692;2023-04-08T06:15:08;6.70;99.90
3758;DHT22;1894;51.038;13.692;2023-04-08T06:17:36;6.70;99.90
3758;DHT22;1894;51.038;13.692;2023-04-08T06:20:07;6.70;99.90
3758;DHT22;1894;51.038;13.692;2023-04-08T06:22:37;6.70;99.90
3758;DHT22;1894;51.038;13.692;2023-04-08T06:25:05;6.80;99.90
3758;DHT22;1894;51.038;13.692;2023-04-08T06:27:32;6.60;99.90
3758;DHT22;1894;51.038;13.692;2023-04-08T06:29:59;6.60;99.90
3758;DHT22;1894;51.038;13.692;2023-04-08T06:32:27;6.70;99.90
3758;DHT22;1894;51.038;13.692;2023-04-08T06:34:54;6.80;99.90
3758;DHT22;1894;51.038;13.692;2023-04-08T06:37:21;6.80;99.90
3758;DHT22;1894;51.038;13.692;2023-04-08T06:39:48;6.90;99.90
3758;DHT22;1894;51.038;13.692;2023-04-08T06:42:15;6.90;99.90
3758;DHT22;1894;51.038;13.692;2023-04-08T06:44:58;7.00;99.90
3758;DHT22;1894;51.038;13.692;2023-04-08T06:47:26;7.10;99.90
3758;DHT22;1894;51.038;13.692;2023-04-08T06:49:53;7.20;99.90
3758;DHT22;1894;51.038;13.692;2023-04-08T06:52:20;7.30;99.90
3758;DHT22;1894;51.038;13.692;2023-04-08T06:54:47;7.30;99.90
3758;DHT22;1894;51.038;13.692;2023-04-08T06:57:14;7.40;99.90
3758;DHT22;1894;51.038;13.692;2023-04-08T06:59:41;7.60;99.90
3758;DHT22;1894;51.038;13.692;2023-04-08T07:02:08;7.60;99.90
3758;DHT22;1894;51.038;13.692;2023-04-08T07:04:35;7.60;99.90
3758;DHT22;1894;51.038;13.692;2023-04-08T07:07:03;7.60;99.90
3758;DHT22;1894;51.038;13.692;2023-04-08T07:09:30;7.70;99.90
3758;DHT22;1894;51.038;13.692;2023-04-08T07:11:58;7.70;99.90
3758;DHT22;1894;51.038;13.692;2023-04-08T07:14:25;7.80;99.90
3758;DHT22;1894;51.038;13.692;2023-04-08T07:16:52;7.90;99.90
3758;DHT22;1894;51.038;13.692;2023-04-08T07:19:19;7.90;99.90
3758;DHT22;1894;51.038;13.692;2023-04-08T07:21:48;8.00;99.90
3758;DHT22;1894;51.038;13.692;2023-04-08T07:24:15;8.00;99.90
3758;DHT22;1894;51.038;13.692;2023-04-08T07:26:43;8.10;99.90
3758;DHT22;1894;51.038;13.692;2023-04-08T07:29:10;8.10;99.90
3758;DHT22;1894;51.038;13.692;2023-04-08T07:31:37;8.10;99.90
3758;DHT22;1894;51.038;13.692;2023-04-08T07:34:04;8.10;99.90
3758;DHT22;1894;51.038;13.692;2023-04-08T07:36:31;8.00;99.90
3758;DHT22;1894;51.038;13.692;2023-04-08T07:38:59;8.10;99.90
3758;DHT22;1894;51.038;13.692;2023-04-08T07:41:29;8.30;99.90
3758;DHT22;1894;51.038;13.692;2023-04-08T07:43:57;8.40;99.90
3758;DHT22;1894;51.038;13.692;2023-04-08T07:46:24;8.50;99.90
3758;DHT22;1894;51.038;13.692;2023-04-08T07:48:52;8.80;99.90
3758;DHT22;1894;51.038;13.692;2023-04-08T07:51:19;8.80;99.90
3758;DHT22;1894;51.038;13.692;2023-04-08T07:53:46;9.00;99.90
3758;DHT22;1894;51.038;13.692;2023-04-08T07:56:15;9.00;99.90
3758;DHT22;1894;51.038;13.692;2023-04-08T07:58:45;8.90;99.90
3758;DHT22;1894;51.038;13.692;2023-04-08T08:01:20;8.80;99.90
3758;DHT22;1894;51.038;13.692;2023-04-08T08:03:50;8.80;99.90
3758;DHT22;1894;51.038;13.692;2023-04-08T08:06:19;8.50;99.90
3758;DHT22;1894;51.038;13.692;2023-04-08T08:08:46;8.70;99.90
3758;DHT22;1894;51.038;13.692;2023-04-08T08:11:14;8.70;99.90
3758;DHT22;1894;51.038;13.692;2023-04-08T08:13:41;8.70;99.90
3758;DHT22;1894;51.038;13.692;2023-04-08T08:16:08;8.70;99.90
3758;DHT22;1894;51.038;13.692;2023-04-08T08:18:38;8.60;99.90
3758;DHT22;1894;51.038;13.692;2023-04-08T08:21:06;8.70;99.90
3758;DHT22;1894;51.038;13.692;2023-04-08T08:23:34;8.80;99.90
3758;DHT22;1894;51.038;13.692;2023-04-08T08:26:06;9.10;99.90
3758;DHT22;1894;51.038;13.692;2023-04-08T08:28:37;9.10;99.90
3758;DHT22;1894;51.038;13.692;2023-04-08T08:31:05;9.40;99.90
3758;DHT22;1894;51.038;13.692;2023-04-08T08:33:33;9.40;99.90
3758;DHT22;1894;51.038;13.692;2023-04-08T08:36:00;9.50;99.90
3758;DHT22;1894;51.038;13.692;2023-04-08T08:38:27;9.50;99.90
3758;DHT22;1894;51.038;13.692;2023-04-08T08:40:58;9.50;99.90
3758;DHT22;1894;51.038;13.692;2023-04-08T08:43:27;9.60;99.90
3758;DHT22;1894;51.038;13.692;2023-04-08T08:45:55;9.70;99.90
3758;DHT22;1894;51.038;13.692;2023-04-08T08:48:22;9.80;99.90
3758;DHT22;1894;51.038;13.692;2023-04-08T08:50:49;9.80;99.90
3758;DHT22;1894;51.038;13.692;2023-04-08T08:53:17;9.60;99.90
3758;DHT22;1894;51.038;13.692;2023-04-08T08:55:45;9.80;99.90
3758;DHT22;1894;51.038;13.692;2023-04-08T08:58:15;9.90;99.90
3758;DHT22;1894;51.038;13.692;2023-04-08T09:00:42;9.30;99.90
3758;DHT22;1894;51.038;13.692;2023-04-08T09:03:40;9.40;99.90
3758;DHT22;1894;51.038;13.692;2023-04-08T09:06:07;9.50;99.90
3758;DHT22;1894;51.038;13.692;2023-04-08T09:08:36;9.60;99.90
3758;DHT22;1894;51.038;13.692;2023-04-08T09:11:19;9.90;99.90
3758;DHT22;1894;51.038;13.692;2023-04-08T09:13:49;9.80;99.90
3758;DHT22;1894;51.038;13.692;2023-04-08T09:16:18;9.70;99.90
3758;DHT22;1894;51.038;13.692;2023-04-08T09:18:46;10.00;99.90
3758;DHT22;1894;51.038;13.692;2023-04-08T09:21:16;10.10;99.90
3758;DHT22;1894;51.038;13.692;2023-04-08T09:23:46;10.10;99.90
3758;DHT22;1894;51.038;13.692;2023-04-08T09:26:20;9.90;99.90
3758;DHT22;1894;51.038;13.692;2023-04-08T09:31:44;9.80;99.90
3758;DHT22;1894;51.038;13.692;2023-04-08T09:34:14;10.00;99.90
3758;DHT22;1894;51.038;13.692;2023-04-08T09:36:52;10.10;99.90
3758;DHT22;1894;51.038;13.692;2023-04-08T09:39:20;10.10;99.90
3758;DHT22;1894;51.038;13.692;2023-04-08T09:41:48;9.90;99.90
3758;DHT22;1894;51.038;13.692;2023-04-08T09:44:18;9.80;99.90
3758;DHT22;1894;51.038;13.692;2023-04-08T09:52:14;10.20;99.90
3758;DHT22;1894;51.038;13.692;2023-04-08T09:54:54;10.30;99.90
3758;DHT22;1894;51.038;13.692;2023-04-08T09:57:39;10.70;99.90
3758;DHT22;1894;51.038;13.692;2023-04-08T10:00:16;10.80;99.90
3758;DHT22;1894;51.038;13.692;2023-04-08T10:05:47;10.40;99.90
3758;DHT22;1894;51.038;13.692;2023-04-08T10:08:15;10.50;99.90
3758;DHT22;1894;51.038;13.692;2023-04-08T10:10:43;10.60;99.90
3758;DHT22;1894;51.038;13.692;2023-04-08T10:13:13;10.60;99.90
3758;DHT22;1894;51.038;13.692;2023-04-08T10:15:40;10.80;99.90
3758;DHT22;1894;51.038;13.692;2023-04-08T10:23:08;10.90;99.90
3758;DHT22;1894;51.038;13.692;2023-04-08T10:25:43;11.00;99.90
3758;DHT22;1894;51.038;13.692;2023-04-08T10:30:55;10.80;99.90
3758;DHT22;1894;51.038;13.692;2023-04-08T10:33:31;10.60;99.90
3758;DHT22;1894;51.038;13.692;2023-04-08T10:36:11;10.60;99.90
3758;DHT22;1894;51.038;13.692;2023-04-08T10:38:41;10.40;99.90
3758;DHT22;1894;51.038;13.692;2023-04-08T10:41:12;10.50;99.90
3758;DHT22;1894;51.038;13.692;2023-04-08T10:43:40;10.60;99.90
3758;DHT22;1894;51.038;13.692;2023-04-08T10:46:09;10.70;99.90
3758;DHT22;1894;51.038;13.692;2023-04-08T10:48:37;11.00;99.90
3758;DHT22;1894;51.038;13.692;2023-04-08T10:51:05;11.10;99.90
3758;DHT22;1894;51.038;13.692;2023-04-08T10:53:37;11.20;99.90
3758;DHT22;1894;51.038;13.692;2023-04-08T10:56:09;11.20;99.90
3758;DHT22;1894;51.038;13.692;2023-04-08T10:58:52;11.20;99.90
3758;DHT22;1894;51.038;13.692;2023-04-08T11:01:22;11.00;99.90
3758;DHT22;1894;51.038;13.692;2023-04-08T11:03:49;11.30;99.90
3758;DHT22;1894;51.038;13.692;2023-04-08T11:06:18;11.70;99.90
3758;DHT22;1894;51.038;13.692;2023-04-08T11:08:45;11.90;99.90
3758;DHT22;1894;51.038;13.692;2023-04-08T11:11:13;11.80;99.90
3758;DHT22;1894;51.038;13.692;2023-04-08T11:13:45;11.60;99.90
3758;DHT22;1894;51.038;13.692;2023-04-08T11:16:22;11.30;99.90
3758;DHT22;1894;51.038;13.692;2023-04-08T11:18:50;11.20;99.90
3758;DHT22;1894;51.038;13.692;2023-04-08T11:21:17;10.80;99.90
3758;DHT22;1894;51.038;13.692;2023-04-08T11:23:49;10.60;99.90
3758;DHT22;1894;51.038;13.692;2023-04-08T11:26:18;10.60;99.90
3758;DHT22;1894;51.038;13.692;2023-04-08T11:28:47;10.50;99.90
3758;DHT22;1894;51.038;13.692;2023-04-08T11:31:18;10.20;99.90
3758;DHT22;1894;51.038;13.692;2023-04-08T11:33:53;10.40;99.90
3758;DHT22;1894;51.038;13.692;2023-04-08T11:36:22;10.30;99.90
3758;DHT22;1894;51.038;13.692;2023-04-08T11:38:49;10.40;99.90
3758;DHT22;1894;51.038;13.692;2023-04-08T11:41:19;10.30;99.90
3758;DHT22;1894;51.038;13.692;2023-04-08T11:43:52;10.00;99.90
3758;DHT22;1894;51.038;13.692;2023-04-08T11:46:21;10.00;99.90
3758;DHT22;1894;51.038;13.692;2023-04-08T11:49:06;10.00;99.90
3758;DHT22;1894;51.038;13.692;2023-04-08T11:51:34;9.80;99.90
3758;DHT22;1894;51.038;13.692;2023-04-08T11:54:28;9.80;99.90
3758;DHT22;1894;51.038;13.692;2023-04-08T11:56:56;9.90;99.90
3758;DHT22;1894;51.038;13.692;2023-04-08T11:59:24;10.10;99.90
3758;DHT22;1894;51.038;13.692;2023-04-08T12:01:55;10.10;99.90
3758;DHT22;1894;51.038;13.692;2023-04-08T12:04:22;10.70;99.90
3758;DHT22;1894;51.038;13.692;2023-04-08T12:06:50;11.10;99.90
3758;DHT22;1894;51.038;13.692;2023-04-08T12:09:18;11.70;99.90
3758;DHT22;1894;51.038;13.692;2023-04-08T12:11:45;12.00;99.90
3758;DHT22;1894;51.038;13.692;2023-04-08T12:14:13;11.90;99.90
3758;DHT22;1894;51.038;13.692;2023-04-08T12:16:40;11.50;99.90
3758;DHT22;1894;51.038;13.692;2023-04-08T12:19:08;11.30;99.90
3758;DHT22;1894;51.038;13.692;2023-04-08T12:21:35;10.70;99.90
3758;DHT22;1894;51.038;13.692;2023-04-08T12:24:04;10.20;99.90
3758;DHT22;1894;51.038;13.692;2023-04-08T12:26:31;9.90;99.90
3758;DHT22;1894;51.038;13.692;2023-04-08T12:28:58;9.80;99.90
3758;DHT22;1894;51.038;13.692;2023-04-08T12:31:25;9.60;99.90
3758;DHT22;1894;51.038;13.692;2023-04-08T12:33:54;9.60;99.90
3758;DHT22;1894;51.038;13.692;2023-04-08T12:36:21;9.40;99.90
3758;DHT22;1894;51.038;13.692;2023-04-08T12:38:49;9.60;99.90
3758;DHT22;1894;51.038;13.692;2023-04-08T12:41:16;9.50;99.90
3758;DHT22;1894;51.038;13.692;2023-04-08T12:43:43;9.50;99.90
3758;DHT22;1894;51.038;13.692;2023-04-08T12:46:11;9.50;99.90
3758;DHT22;1894;51.038;13.692;2023-04-08T12:48:39;9.30;99.90
3758;DHT22;1894;51.038;13.692;2023-04-08T12:51:06;9.30;99.90
3758;DHT22;1894;51.038;13.692;2023-04-08T12:53:36;9.40;99.90
3758;DHT22;1894;51.038;13.692;2023-04-08T12:56:03;9.60;99.90
3758;DHT22;1894;51.038;13.692;2023-04-08T12:58:31;9.50;99.90
3758;DHT22;1894;51.038;13.692;2023-04-08T13:00:58;9.60;99.90
3758;DHT22;1894;51.038;13.692;2023-04-08T13:03:25;9.50;99.90
3758;DHT22;1894;51.038;13.692;2023-04-08T13:05:56;9.60;99.90
3758;DHT22;1894;51.038;13.692;2023-04-08T13:08:24;9.70;99.90
3758;DHT22;1894;51.038;13.692;2023-04-08T13:10:52;9.70;99.90
3758;DHT22;1894;51.038;13.692;2023-04-08T13:13:19;9.90;99.90
3758;DHT22;1894;51.038;13.692;2023-04-08T13:15:46;9.80;99.90
3758;DHT22;1894;51.038;13.692;2023-04-08T13:18:14;10.00;99.90
3758;DHT22;1894;51.038;13.692;2023-04-08T13:20:42;10.40;99.90
3758;DHT22;1894;51.038;13.692;2023-04-08T13:23:09;11.20;99.90
3758;DHT22;1894;51.038;13.692;2023-04-08T13:25:37;11.60;99.90
3758;DHT22;1894;51.038;13.692;2023-04-08T13:28:04;12.30;99.90
3758;DHT22;1894;51.038;13.692;2023-04-08T13:30:31;12.40;99.90
3758;DHT22;1894;51.038;13.692;2023-04-08T13:32:59;12.20;99.90
3758;DHT22;1894;51.038;13.692;2023-04-08T13:35:26;11.90;99.90
3758;DHT22;1894;51.038;13.692;2023-04-08T13:37:53;11.60;99.90
3758;DHT22;1894;51.038;13.692;2023-04-08T13:40:21;11.50;99.90
3758;DHT22;1894;51.038;13.692;2023-04-08T13:42:48;11.50;99.90
3758;DHT22;1894;51.038;13.692;2023-04-08T13:45:15;11.50;99.90
3758;DHT22;1894;51.038;13.692;2023-04-08T13:47:42;11.40;99.90
3758;DHT22;1894;51.038;13.692;2023-04-08T13:50:10;11.40;99.90
3758;DHT22;1894;51.038;13.692;2023-04-08T13:52:37;11.40;99.90
3758;DHT22;1894;51.038;13.692;2023-04-08T13:55:05;11.00;99.90
3758;DHT22;1894;51.038;13.692;2023-04-08T13:57:32;10.90;99.90
3758;DHT22;1894;51.038;13.692;2023-04-08T13:59:59;10.60;99.90
3758;DHT22;1894;51.038;13.692;2023-04-08T14:02:27;10.50;99.90
3758;DHT22;1894;51.038;13.692;2023-04-08T14:04:54;10.10;99.90
3758;DHT22;1894;51.038;13.692;2023-04-08T14:07:23;10.20;99.90
3758;DHT22;1894;51.038;13.692;2023-04-08T14:09:50;10.40;99.90
3758;DHT22;1894;51.038;13.692;2023-04-08T14:12:17;10.90;99.90
3758;DHT22;1894;51.038;13.692;2023-04-08T14:14:44;11.00;99.90
3758;DHT22;1894;51.038;13.692;2023-04-08T14:17:12;10.70;99.90
3758;DHT22;1894;51.038;13.692;2023-04-08T14:19:39;10.90;99.90
3758;DHT22;1894;51.038;13.692;2023-04-08T14:22:07;10.80;99.90
3758;DHT22;1894;51.038;13.692;2023-04-08T14:24:34;10.60;99.90
3758;DHT22;1894;51.038;13.692;2023-04-08T14:27:02;10.30;99.90
3758;DHT22;1894;51.038;13.692;2023-04-08T14:29:29;10.40;99.90
3758;DHT22;1894;51.038;13.692;2023-04-08T14:31:56;10.20;99.90
3758;DHT22;1894;51.038;13.692;2023-04-08T14:34:24;10.00;99.90
3758;DHT22;1894;51.038;13.692;2023-04-08T14:36:51;9.80;99.90
3758;DHT22;1894;51.038;13.692;2023-04-08T14:39:18;10.00;99.90
3758;DHT22;1894;51.038;13.692;2023-04-08T14:41:46;9.70;99.90
3758;DHT22;1894;51.038;13.692;2023-04-08T14:44:14;9.80;99.90
3758;DHT22;1894;51.038;13.692;2023-04-08T14:46:41;9.90;99.90
3758;DHT22;1894;51.038;13.692;2023-04-08T14:49:08;9.80;99.90
3758;DHT22;1894;51.038;13.692;2023-04-08T14:51:35;9.70;99.90
3758;DHT22;1894;51.038;13.692;2023-04-08T14:54:04;9.70;99.90
3758;DHT22;1894;51.038;13.692;2023-04-08T14:56:31;9.90;99.90
3758;DHT22;1894;51.038;13.692;2023-04-08T14:58:59;10.00;99.90
3758;DHT22;1894;51.038;13.692;2023-04-08T15:01:26;9.60;99.90
3758;DHT22;1894;51.038;13.692;2023-04-08T15:03:54;9.40;99.90
3758;DHT22;1894;51.038;13.692;2023-04-08T15:06:22;9.40;99.90
3758;DHT22;1894;51.038;13.692;2023-04-08T15:08:49;9.50;99.90
3758;DHT22;1894;51.038;13.692;2023-04-08T15:11:16;9.30;99.90
3758;DHT22;1894;51.038;13.692;2023-04-08T15:13:47;9.40;99.90
3758;DHT22;1894;51.038;13.692;2023-04-08T15:16:14;9.60;99.90
3758;DHT22;1894;51.038;13.692;2023-04-08T15:18:41;9.60;99.90
3758;DHT22;1894;51.038;13.692;2023-04-08T15:21:09;9.80;99.90
3758;DHT22;1894;51.038;13.692;2023-04-08T15:23:36;9.80;99.90
3758;DHT22;1894;51.038;13.692;2023-04-08T15:26:08;10.00;99.90
3758;DHT22;1894;51.038;13.692;2023-04-08T15:28:36;9.90;99.90
3758;DHT22;1894;51.038;13.692;2023-04-08T15:31:04;9.90;99.90
3758;DHT22;1894;51.038;13.692;2023-04-08T15:33:31;9.90;99.90
3758;DHT22;1894;51.038;13.692;2023-04-08T15:35:59;9.90;99.90
3758;DHT22;1894;51.038;13.692;2023-04-08T15:38:30;9.80;99.90
3758;DHT22;1894;51.038;13.692;2023-04-08T15:40:59;9.60;99.90
3758;DHT22;1894;51.038;13.692;2023-04-08T15:43:26;9.30;99.90
3758;DHT22;1894;51.038;13.692;2023-04-08T15:45:54;9.40;99.90
3758;DHT22;1894;51.038;13.692;2023-04-08T15:48:21;9.30;99.90
3758;DHT22;1894;51.038;13.692;2023-04-08T15:50:48;9.20;99.90
3758;DHT22;1894;51.038;13.692;2023-04-08T15:53:15;9.30;99.90
3758;DHT22;1894;51.038;13.692;2023-04-08T15:55:42;9.00;99.90
3758;DHT22;1894;51.038;13.692;2023-04-08T15:58:09;9.00;99.90
3758;DHT22;1894;51.038;13.692;2023-04-08T16:00:37;9.00;99.90
3758;DHT22;1894;51.038;13.692;2023-04-08T16:03:04;9.10;99.90
3758;DHT22;1894;51.038;13.692;2023-04-08T16:05:31;9.00;99.90
3758;DHT22;1894;51.038;13.692;2023-04-08T16:08:01;8.80;99.90
3758;DHT22;1894;51.038;13.692;2023-04-08T16:10:30;8.80;99.90
3758;DHT22;1894;51.038;13.692;2023-04-08T16:12:57;8.80;99.90
3758;DHT22;1894;51.038;13.692;2023-04-08T16:15:25;8.70;99.90
3758;DHT22;1894;51.038;13.692;2023-04-08T16:17:52;8.70;99.90
3758;DHT22;1894;51.038;13.692;2023-04-08T16:20:20;8.80;99.90
3758;DHT22;1894;51.038;13.692;2023-04-08T16:23:13;8.70;99.90
3758;DHT22;1894;51.038;13.692;2023-04-08T16:26:17;8.60;99.90
3758;DHT22;1894;51.038;13.692;2023-04-08T16:28:45;8.60;99.90
3758;DHT22;1894;51.038;13.692;2023-04-08T16:31:12;8.70;99.90
3758;DHT22;1894;51.038;13.692;2023-04-08T16:33:40;8.60;99.90
3758;DHT22;1894;51.038;13.692;2023-04-08T16:36:07;8.50;99.90